RYR80JJ EGSS-LFMK
Flight info
| Callsign | RYR80JJ |
|---|---|
| Flight time | 1h 37m |
| Altitude | 33000 |
| Route | NUGBO M183 SILVA Q41 COWLY UT71 VAPID UN859 SOPIL DCT BALAN DCT EVPOK DCT NARAK DCT GAI |
| Aircraft | B738/M-SDE3FGIJ1LRWY/SB1 |
Departure
| Time | 2026-05-06 07:24 |
|---|---|
| Airport | London Stansted Airport (EGSS) |
Arrival
| Time | 2026-05-06 09:02 |
|---|---|
| Airport | Carcassonne Salvaza Airport (LFMK) |
| Time | Latitude | Longitude | Altitude | Speed | Heading |
|---|---|---|---|---|---|
| 2026-05-06 06:47 | 51.89220 | 0.25483 | 356 ft | 0 kts | 102° |
| 2026-05-06 07:14 | 51.89220 | 0.25482 | 348 ft | 1 kts | 102° |
| 2026-05-06 07:14 | 51.89225 | 0.25444 | 350 ft | 4 kts | 102° |
| 2026-05-06 07:14 | 51.89229 | 0.25409 | 356 ft | 4 kts | 112° |
| 2026-05-06 07:14 | 51.89242 | 0.25385 | 355 ft | 4 kts | 184° |
| 2026-05-06 07:15 | 51.89260 | 0.25404 | 358 ft | 4 kts | 223° |
| 2026-05-06 07:15 | 51.89266 | 0.25412 | 354 ft | 0 kts | 223° |
| 2026-05-06 07:18 | 51.89262 | 0.25406 | 358 ft | 3 kts | 223° |
| 2026-05-06 07:18 | 51.89234 | 0.25365 | 357 ft | 8 kts | 223° |
| 2026-05-06 07:18 | 51.89179 | 0.25282 | 350 ft | 13 kts | 223° |
| 2026-05-06 07:18 | 51.89106 | 0.25173 | 348 ft | 15 kts | 223° |
| 2026-05-06 07:19 | 51.89027 | 0.25054 | 354 ft | 16 kts | 223° |
| 2026-05-06 07:19 | 51.88941 | 0.24924 | 348 ft | 18 kts | 223° |
| 2026-05-06 07:19 | 51.88844 | 0.24779 | 351 ft | 19 kts | 223° |
| 2026-05-06 07:19 | 51.88748 | 0.24636 | 348 ft | 19 kts | 223° |
| 2026-05-06 07:20 | 51.88655 | 0.24495 | 351 ft | 18 kts | 223° |
| 2026-05-06 07:20 | 51.88565 | 0.24360 | 348 ft | 18 kts | 222° |
| 2026-05-06 07:20 | 51.88466 | 0.24211 | 348 ft | 22 kts | 223° |
| 2026-05-06 07:20 | 51.88345 | 0.24028 | 350 ft | 26 kts | 223° |
| 2026-05-06 07:21 | 51.88205 | 0.23819 | 350 ft | 27 kts | 223° |
| 2026-05-06 07:21 | 51.88070 | 0.23617 | 352 ft | 26 kts | 223° |
| 2026-05-06 07:21 | 51.87943 | 0.23427 | 351 ft | 24 kts | 223° |
| 2026-05-06 07:21 | 51.87874 | 0.23268 | 348 ft | 14 kts | 286° |
| 2026-05-06 07:22 | 51.87923 | 0.23141 | 349 ft | 13 kts | 275° |
| 2026-05-06 07:22 | 51.87870 | 0.23018 | 352 ft | 15 kts | 222° |
| 2026-05-06 07:22 | 51.87814 | 0.22897 | 348 ft | 11 kts | 282° |
| 2026-05-06 07:22 | 51.87864 | 0.22802 | 350 ft | 12 kts | 312° |
| 2026-05-06 07:23 | 51.87923 | 0.22694 | 341 ft | 11 kts | 312° |
| 2026-05-06 07:23 | 51.87956 | 0.22665 | 351 ft | 4 kts | 28° |
| 2026-05-06 07:23 | 51.87987 | 0.22710 | 339 ft | 11 kts | 43° |
| 2026-05-06 07:23 | 51.88193 | 0.23019 | 334 ft | 78 kts | 42° |
| 2026-05-06 07:24 | 51.88762 | 0.23876 | 334 ft | 144 kts | 43° |
| 2026-05-06 07:24 | 51.89556 | 0.25082 | 806 ft | 162 kts | 39° |
| 2026-05-06 07:24 | 51.90312 | 0.26196 | 2096 ft | 133 kts | 40° |
| 2026-05-06 07:24 | 51.90986 | 0.27244 | 2865 ft | 143 kts | 40° |
| 2026-05-06 07:25 | 51.91731 | 0.28366 | 3495 ft | 153 kts | 39° |
| 2026-05-06 07:25 | 51.92651 | 0.29414 | 4020 ft | 171 kts | 22° |
| 2026-05-06 07:25 | 51.93828 | 0.29889 | 4719 ft | 179 kts | 2° |
| 2026-05-06 07:25 | 51.95063 | 0.29592 | 5409 ft | 184 kts | 340° |
| 2026-05-06 07:26 | 51.96191 | 0.28430 | 5830 ft | 203 kts | 315° |
| 2026-05-06 07:26 | 51.96918 | 0.26398 | 6432 ft | 216 kts | 290° |
| 2026-05-06 07:26 | 51.97227 | 0.23976 | 7094 ft | 223 kts | 282° |
| 2026-05-06 07:26 | 51.97448 | 0.21464 | 7893 ft | 225 kts | 281° |
| 2026-05-06 07:27 | 51.97681 | 0.18891 | 8464 ft | 242 kts | 281° |
| 2026-05-06 07:27 | 51.97951 | 0.16014 | 8748 ft | 269 kts | 281° |
| 2026-05-06 07:27 | 51.98255 | 0.12999 | 9452 ft | 278 kts | 282° |
| 2026-05-06 07:27 | 51.98585 | 0.09870 | 10053 ft | 284 kts | 281° |
| 2026-05-06 07:28 | 51.98904 | 0.06643 | 10532 ft | 302 kts | 276° |
| 2026-05-06 07:28 | 51.98680 | 0.03083 | 10760 ft | 330 kts | 258° |
| 2026-05-06 07:28 | 51.97628 | -0.04405 | 12045 ft | 347 kts | 259° |
| 2026-05-06 07:29 | 51.97117 | -0.08238 | 12872 ft | 350 kts | 259° |
| 2026-05-06 07:29 | 51.96607 | -0.12129 | 13703 ft | 353 kts | 259° |
| 2026-05-06 07:29 | 51.96096 | -0.16046 | 14432 ft | 357 kts | 259° |
| 2026-05-06 07:29 | 51.95583 | -0.19975 | 15247 ft | 357 kts | 259° |
| 2026-05-06 07:30 | 51.95067 | -0.23926 | 16007 ft | 359 kts | 259° |
| 2026-05-06 07:30 | 51.94544 | -0.27910 | 16753 ft | 362 kts | 259° |
| 2026-05-06 07:30 | 51.94018 | -0.31914 | 17465 ft | 366 kts | 258° |
| 2026-05-06 07:30 | 51.93483 | -0.35973 | 18169 ft | 369 kts | 258° |
| 2026-05-06 07:31 | 51.92944 | -0.40046 | 18840 ft | 371 kts | 258° |
| 2026-05-06 07:31 | 51.92398 | -0.44157 | 19385 ft | 376 kts | 258° |
| 2026-05-06 07:31 | 51.91852 | -0.48262 | 20029 ft | 378 kts | 258° |
| 2026-05-06 07:31 | 51.91295 | -0.52435 | 20588 ft | 382 kts | 258° |
| 2026-05-06 07:32 | 51.90729 | -0.56662 | 21169 ft | 385 kts | 258° |
| 2026-05-06 07:32 | 51.90157 | -0.60920 | 21702 ft | 389 kts | 258° |
| 2026-05-06 07:32 | 51.89578 | -0.65219 | 22301 ft | 392 kts | 258° |
| 2026-05-06 07:32 | 51.88993 | -0.69555 | 22827 ft | 396 kts | 258° |
| 2026-05-06 07:33 | 51.88401 | -0.73928 | 23392 ft | 398 kts | 258° |
| 2026-05-06 07:33 | 51.87803 | -0.78330 | 23839 ft | 403 kts | 258° |
| 2026-05-06 07:33 | 51.87199 | -0.82769 | 24295 ft | 405 kts | 258° |
| 2026-05-06 07:33 | 51.86591 | -0.87223 | 24767 ft | 407 kts | 258° |
| 2026-05-06 07:34 | 51.85949 | -0.91706 | 25180 ft | 411 kts | 253° |
| 2026-05-06 07:34 | 51.84698 | -0.95862 | 25569 ft | 415 kts | 234° |
| 2026-05-06 07:34 | 51.82677 | -0.99208 | 26013 ft | 420 kts | 218° |
| 2026-05-06 07:34 | 51.80135 | -1.01560 | 26426 ft | 425 kts | 202° |
| 2026-05-06 07:35 | 51.77250 | -1.02694 | 26795 ft | 430 kts | 191° |
| 2026-05-06 07:35 | 51.74277 | -1.03413 | 27180 ft | 434 kts | 189° |
| 2026-05-06 07:35 | 51.71273 | -1.04078 | 27541 ft | 437 kts | 189° |
| 2026-05-06 07:35 | 51.68258 | -1.04784 | 27901 ft | 439 kts | 190° |
| 2026-05-06 07:36 | 51.65232 | -1.05544 | 28279 ft | 442 kts | 191° |
| 2026-05-06 07:36 | 51.62181 | -1.06302 | 28647 ft | 444 kts | 188° |
| 2026-05-06 07:36 | 51.59120 | -1.06527 | 28977 ft | 449 kts | 180° |
| 2026-05-06 07:36 | 51.55992 | -1.06343 | 29335 ft | 451 kts | 179° |
| 2026-05-06 07:37 | 51.52856 | -1.06106 | 29671 ft | 453 kts | 179° |
| 2026-05-06 07:37 | 51.49688 | -1.05874 | 29986 ft | 456 kts | 179° |
| 2026-05-06 07:37 | 51.46510 | -1.05668 | 30250 ft | 458 kts | 179° |
| 2026-05-06 07:37 | 51.43308 | -1.05482 | 30544 ft | 459 kts | 179° |
| 2026-05-06 07:38 | 51.40116 | -1.05309 | 30910 ft | 459 kts | 179° |
| 2026-05-06 07:38 | 51.36928 | -1.05138 | 31283 ft | 458 kts | 179° |
| 2026-05-06 07:38 | 51.33751 | -1.04966 | 31627 ft | 458 kts | 179° |
| 2026-05-06 07:38 | 51.30560 | -1.04792 | 31947 ft | 458 kts | 179° |
| 2026-05-06 07:39 | 51.27378 | -1.04490 | 32263 ft | 459 kts | 173° |
| 2026-05-06 07:39 | 51.24237 | -1.03484 | 32596 ft | 460 kts | 165° |
| 2026-05-06 07:39 | 51.21234 | -1.01718 | 32926 ft | 461 kts | 156° |
| 2026-05-06 07:39 | 51.18320 | -0.99572 | 33283 ft | 460 kts | 155° |
| 2026-05-06 07:40 | 51.15429 | -0.97393 | 33606 ft | 460 kts | 155° |
| 2026-05-06 07:40 | 51.12532 | -0.95220 | 33922 ft | 460 kts | 155° |
| 2026-05-06 07:40 | 51.09665 | -0.93096 | 34197 ft | 460 kts | 155° |
| 2026-05-06 07:40 | 51.06755 | -0.90967 | 34460 ft | 460 kts | 156° |
| 2026-05-06 07:41 | 51.03841 | -0.88855 | 34729 ft | 459 kts | 156° |
| 2026-05-06 07:41 | 51.00934 | -0.86756 | 34994 ft | 459 kts | 156° |
| 2026-05-06 07:41 | 50.98023 | -0.84659 | 35261 ft | 459 kts | 156° |
| 2026-05-06 07:41 | 50.95117 | -0.82568 | 35512 ft | 458 kts | 156° |
| 2026-05-06 07:42 | 50.92216 | -0.80481 | 35786 ft | 457 kts | 156° |
| 2026-05-06 07:42 | 50.89316 | -0.78396 | 36057 ft | 456 kts | 156° |
| 2026-05-06 07:42 | 50.86428 | -0.76320 | 36324 ft | 456 kts | 156° |
| 2026-05-06 07:42 | 50.83637 | -0.73931 | 36566 ft | 456 kts | 149° |
| 2026-05-06 07:43 | 50.80963 | -0.71237 | 36809 ft | 456 kts | 148° |
| 2026-05-06 07:43 | 50.78316 | -0.68497 | 36999 ft | 454 kts | 147° |
| 2026-05-06 07:43 | 50.73047 | -0.63032 | 36978 ft | 456 kts | 148° |
| 2026-05-06 07:44 | 50.67722 | -0.57585 | 36985 ft | 457 kts | 148° |
| 2026-05-06 07:44 | 50.62367 | -0.52166 | 36979 ft | 458 kts | 148° |
| 2026-05-06 07:45 | 50.57003 | -0.46763 | 36977 ft | 458 kts | 148° |
| 2026-05-06 07:45 | 50.51617 | -0.41351 | 36976 ft | 458 kts | 148° |
| 2026-05-06 07:46 | 50.46283 | -0.36004 | 36975 ft | 457 kts | 148° |
| 2026-05-06 07:46 | 50.40921 | -0.30643 | 36973 ft | 456 kts | 148° |
| 2026-05-06 07:47 | 50.35563 | -0.25299 | 36971 ft | 455 kts | 148° |
| 2026-05-06 07:47 | 50.30220 | -0.19986 | 36967 ft | 454 kts | 148° |
| 2026-05-06 07:48 | 50.24895 | -0.14704 | 36966 ft | 453 kts | 148° |
| 2026-05-06 07:48 | 50.19577 | -0.09442 | 36964 ft | 452 kts | 148° |
| 2026-05-06 07:49 | 50.14269 | -0.04203 | 36961 ft | 451 kts | 148° |
| 2026-05-06 07:49 | 50.08787 | 0.00477 | 36954 ft | 449 kts | 160° |
| 2026-05-06 07:50 | 50.02763 | 0.03016 | 36957 ft | 448 kts | 167° |
| 2026-05-06 07:50 | 49.96732 | 0.05270 | 36961 ft | 449 kts | 167° |
| 2026-05-06 07:51 | 49.90662 | 0.07608 | 36957 ft | 450 kts | 167° |
| 2026-05-06 07:51 | 49.84584 | 0.09988 | 36952 ft | 451 kts | 166° |
| 2026-05-06 07:52 | 49.78491 | 0.12374 | 36948 ft | 452 kts | 166° |
| 2026-05-06 07:52 | 49.72381 | 0.14758 | 36945 ft | 453 kts | 166° |
| 2026-05-06 07:53 | 49.66265 | 0.17147 | 36940 ft | 454 kts | 166° |
| 2026-05-06 07:53 | 49.61186 | 0.19192 | 36941 ft | 454 kts | 166° |
| 2026-05-06 07:54 | 49.55071 | 0.21668 | 36941 ft | 454 kts | 166° |
| 2026-05-06 07:54 | 49.48952 | 0.24131 | 36942 ft | 454 kts | 166° |
| 2026-05-06 07:55 | 49.42843 | 0.26577 | 36934 ft | 453 kts | 166° |
| 2026-05-06 07:55 | 49.36739 | 0.29015 | 36941 ft | 453 kts | 166° |
| 2026-05-06 07:56 | 49.30641 | 0.31445 | 36935 ft | 452 kts | 166° |
| 2026-05-06 07:56 | 49.24622 | 0.33952 | 36936 ft | 451 kts | 165° |
| 2026-05-06 07:57 | 49.18577 | 0.36523 | 36929 ft | 451 kts | 165° |
| 2026-05-06 07:57 | 49.12532 | 0.39077 | 36928 ft | 450 kts | 165° |
| 2026-05-06 07:58 | 49.06495 | 0.41609 | 36926 ft | 450 kts | 165° |
| 2026-05-06 07:58 | 49.00461 | 0.44130 | 36925 ft | 450 kts | 165° |
| 2026-05-06 07:59 | 48.94426 | 0.46647 | 36923 ft | 450 kts | 165° |
| 2026-05-06 07:59 | 48.88376 | 0.49163 | 36925 ft | 450 kts | 165° |
| 2026-05-06 08:00 | 48.82331 | 0.51673 | 36926 ft | 451 kts | 165° |
| 2026-05-06 08:00 | 48.76268 | 0.54155 | 36926 ft | 451 kts | 165° |
| 2026-05-06 08:01 | 48.70218 | 0.56516 | 36927 ft | 451 kts | 166° |
| 2026-05-06 08:01 | 48.64138 | 0.58878 | 36928 ft | 451 kts | 165° |
| 2026-05-06 08:02 | 48.58059 | 0.61252 | 36924 ft | 451 kts | 165° |
| 2026-05-06 08:02 | 48.51973 | 0.63624 | 36926 ft | 451 kts | 165° |
| 2026-05-06 08:03 | 48.45907 | 0.66070 | 36922 ft | 451 kts | 165° |
| 2026-05-06 08:03 | 48.39847 | 0.68553 | 36922 ft | 451 kts | 165° |
| 2026-05-06 08:04 | 48.33827 | 0.71000 | 36916 ft | 451 kts | 165° |
| 2026-05-06 08:04 | 48.27768 | 0.73450 | 36913 ft | 451 kts | 165° |
| 2026-05-06 08:05 | 48.21707 | 0.75876 | 36913 ft | 451 kts | 165° |
| 2026-05-06 08:05 | 48.15630 | 0.78261 | 36909 ft | 451 kts | 165° |
| 2026-05-06 08:06 | 48.09604 | 0.80620 | 36907 ft | 451 kts | 165° |
| 2026-05-06 08:06 | 48.03535 | 0.82996 | 36905 ft | 451 kts | 166° |
| 2026-05-06 08:07 | 47.97463 | 0.85370 | 36902 ft | 451 kts | 166° |
| 2026-05-06 08:07 | 47.91394 | 0.87737 | 36901 ft | 451 kts | 166° |
| 2026-05-06 08:08 | 47.85318 | 0.90101 | 36894 ft | 451 kts | 166° |
| 2026-05-06 08:08 | 47.79241 | 0.92459 | 36894 ft | 451 kts | 166° |
| 2026-05-06 08:09 | 47.73153 | 0.94813 | 36892 ft | 452 kts | 166° |
| 2026-05-06 08:09 | 47.67064 | 0.97164 | 36895 ft | 452 kts | 166° |
| 2026-05-06 08:10 | 47.60985 | 0.99506 | 36898 ft | 452 kts | 166° |
| 2026-05-06 08:10 | 47.54936 | 1.01830 | 36908 ft | 452 kts | 166° |
| 2026-05-06 08:11 | 47.48798 | 1.04185 | 36896 ft | 453 kts | 166° |
| 2026-05-06 08:11 | 47.42711 | 1.06294 | 36886 ft | 451 kts | 173° |
| 2026-05-06 08:12 | 47.36455 | 1.06452 | 36897 ft | 450 kts | 182° |
| 2026-05-06 08:12 | 47.30199 | 1.06192 | 36894 ft | 450 kts | 182° |
| 2026-05-06 08:13 | 47.23926 | 1.05996 | 36889 ft | 450 kts | 182° |
| 2026-05-06 08:13 | 47.17660 | 1.05847 | 36882 ft | 450 kts | 181° |
| 2026-05-06 08:14 | 47.11404 | 1.05705 | 36884 ft | 450 kts | 181° |
| 2026-05-06 08:14 | 47.05141 | 1.05560 | 36878 ft | 450 kts | 182° |
| 2026-05-06 08:15 | 46.98927 | 1.05378 | 36879 ft | 450 kts | 182° |
| 2026-05-06 08:15 | 46.92670 | 1.05098 | 36869 ft | 450 kts | 182° |
| 2026-05-06 08:16 | 46.86412 | 1.04813 | 36874 ft | 450 kts | 182° |
| 2026-05-06 08:16 | 46.80159 | 1.04541 | 36873 ft | 449 kts | 182° |
| 2026-05-06 08:17 | 46.73901 | 1.04276 | 36877 ft | 449 kts | 182° |
| 2026-05-06 08:17 | 46.67649 | 1.04011 | 36874 ft | 449 kts | 182° |
| 2026-05-06 08:18 | 46.61430 | 1.03748 | 36871 ft | 449 kts | 182° |
| 2026-05-06 08:18 | 46.55143 | 1.03482 | 36870 ft | 449 kts | 182° |
| 2026-05-06 08:19 | 46.48919 | 1.04063 | 36864 ft | 450 kts | 169° |
| 2026-05-06 08:19 | 46.42858 | 1.06126 | 36870 ft | 451 kts | 168° |
| 2026-05-06 08:20 | 46.36758 | 1.08259 | 36871 ft | 451 kts | 168° |
| 2026-05-06 08:20 | 46.30648 | 1.10336 | 36875 ft | 450 kts | 168° |
| 2026-05-06 08:21 | 46.24542 | 1.12373 | 36876 ft | 450 kts | 168° |
| 2026-05-06 08:21 | 46.18433 | 1.14396 | 36880 ft | 450 kts | 168° |
| 2026-05-06 08:22 | 46.12330 | 1.16414 | 36891 ft | 450 kts | 168° |
| 2026-05-06 08:22 | 46.06220 | 1.18432 | 36901 ft | 451 kts | 168° |
| 2026-05-06 08:23 | 46.00100 | 1.20448 | 36906 ft | 451 kts | 168° |
| 2026-05-06 08:23 | 45.93981 | 1.22460 | 36919 ft | 451 kts | 168° |
| 2026-05-06 08:24 | 45.87854 | 1.24469 | 36911 ft | 452 kts | 168° |
| 2026-05-06 08:24 | 45.81721 | 1.26477 | 36914 ft | 452 kts | 168° |
| 2026-05-06 08:25 | 45.75587 | 1.28480 | 36909 ft | 452 kts | 168° |
| 2026-05-06 08:25 | 45.69445 | 1.30482 | 36898 ft | 453 kts | 169° |
| 2026-05-06 08:26 | 45.63298 | 1.32480 | 36901 ft | 453 kts | 169° |
| 2026-05-06 08:26 | 45.57157 | 1.34473 | 36899 ft | 452 kts | 169° |
| 2026-05-06 08:27 | 45.51010 | 1.36463 | 36891 ft | 453 kts | 169° |
| 2026-05-06 08:27 | 45.44909 | 1.38433 | 36893 ft | 452 kts | 169° |
| 2026-05-06 08:28 | 45.38760 | 1.40412 | 36900 ft | 452 kts | 169° |
| 2026-05-06 08:28 | 45.32628 | 1.42383 | 36915 ft | 451 kts | 169° |
| 2026-05-06 08:29 | 45.26506 | 1.44346 | 36918 ft | 451 kts | 169° |
| 2026-05-06 08:29 | 45.20379 | 1.46307 | 36933 ft | 450 kts | 169° |
| 2026-05-06 08:30 | 45.14264 | 1.48260 | 36933 ft | 450 kts | 169° |
| 2026-05-06 08:30 | 45.08186 | 1.50196 | 36936 ft | 450 kts | 169° |
| 2026-05-06 08:31 | 45.02079 | 1.52138 | 36937 ft | 450 kts | 170° |
| 2026-05-06 08:31 | 44.99006 | 1.53113 | 36524 ft | 456 kts | 170° |
| 2026-05-06 08:31 | 44.95912 | 1.54093 | 36003 ft | 454 kts | 170° |
| 2026-05-06 08:32 | 44.92827 | 1.55071 | 35373 ft | 454 kts | 170° |
| 2026-05-06 08:32 | 44.89730 | 1.56051 | 34726 ft | 455 kts | 170° |
| 2026-05-06 08:32 | 44.86635 | 1.57029 | 34161 ft | 454 kts | 170° |
| 2026-05-06 08:32 | 44.83554 | 1.58002 | 33593 ft | 452 kts | 170° |
| 2026-05-06 08:33 | 44.80498 | 1.58967 | 33082 ft | 448 kts | 170° |
| 2026-05-06 08:33 | 44.77467 | 1.59922 | 32580 ft | 445 kts | 170° |
| 2026-05-06 08:33 | 44.74460 | 1.60869 | 32101 ft | 441 kts | 170° |
| 2026-05-06 08:33 | 44.71478 | 1.61807 | 31630 ft | 437 kts | 170° |
| 2026-05-06 08:34 | 44.68515 | 1.62738 | 31167 ft | 434 kts | 170° |
| 2026-05-06 08:34 | 44.62672 | 1.64569 | 30277 ft | 427 kts | 170° |
| 2026-05-06 08:34 | 44.59779 | 1.65475 | 29781 ft | 425 kts | 170° |
| 2026-05-06 08:35 | 44.56909 | 1.66372 | 29254 ft | 422 kts | 170° |
| 2026-05-06 08:35 | 44.54058 | 1.67263 | 28778 ft | 417 kts | 170° |
| 2026-05-06 08:35 | 44.51247 | 1.68140 | 28395 ft | 410 kts | 170° |
| 2026-05-06 08:35 | 44.48514 | 1.68995 | 28432 ft | 394 kts | 171° |
| 2026-05-06 08:36 | 44.45844 | 1.69827 | 28432 ft | 396 kts | 171° |
| 2026-05-06 08:36 | 44.43160 | 1.70658 | 28450 ft | 407 kts | 171° |
| 2026-05-06 08:36 | 44.40321 | 1.71536 | 28461 ft | 415 kts | 171° |
| 2026-05-06 08:37 | 44.34732 | 1.73274 | 28446 ft | 412 kts | 171° |
| 2026-05-06 08:37 | 44.29144 | 1.74996 | 28439 ft | 408 kts | 173° |
| 2026-05-06 08:38 | 44.23621 | 1.76300 | 28404 ft | 391 kts | 175° |
| 2026-05-06 08:38 | 44.20976 | 1.76856 | 28379 ft | 377 kts | 176° |
| 2026-05-06 08:38 | 44.18427 | 1.77394 | 28360 ft | 364 kts | 176° |
| 2026-05-06 08:38 | 44.15968 | 1.77920 | 28331 ft | 352 kts | 176° |
| 2026-05-06 08:39 | 44.13590 | 1.78435 | 28298 ft | 339 kts | 176° |
| 2026-05-06 08:39 | 44.09799 | 1.79263 | 27783 ft | 334 kts | 176° |
| 2026-05-06 08:39 | 44.06642 | 1.79941 | 26242 ft | 362 kts | 175° |
| 2026-05-06 08:40 | 44.04066 | 1.80500 | 24968 ft | 386 kts | 174° |
| 2026-05-06 08:40 | 44.01359 | 1.81097 | 23743 ft | 400 kts | 174° |
| 2026-05-06 08:40 | 43.98577 | 1.81713 | 22345 ft | 408 kts | 174° |
| 2026-05-06 08:40 | 43.96674 | 1.82133 | 21424 ft | 412 kts | 174° |
| 2026-05-06 08:41 | 43.93832 | 1.82710 | 20121 ft | 414 kts | 176° |
| 2026-05-06 08:41 | 43.90030 | 1.83243 | 18507 ft | 415 kts | 178° |
| 2026-05-06 08:41 | 43.88075 | 1.83469 | 17926 ft | 417 kts | 178° |
| 2026-05-06 08:41 | 43.85193 | 1.83793 | 17253 ft | 412 kts | 178° |
| 2026-05-06 08:42 | 43.82398 | 1.84115 | 16756 ft | 404 kts | 178° |
| 2026-05-06 08:42 | 43.79624 | 1.84445 | 16262 ft | 396 kts | 178° |
| 2026-05-06 08:42 | 43.76905 | 1.84779 | 15816 ft | 389 kts | 178° |
| 2026-05-06 08:42 | 43.74233 | 1.85112 | 15380 ft | 382 kts | 178° |
| 2026-05-06 08:43 | 43.71602 | 1.85443 | 14946 ft | 376 kts | 178° |
| 2026-05-06 08:43 | 43.69026 | 1.85768 | 14516 ft | 368 kts | 178° |
| 2026-05-06 08:43 | 43.66490 | 1.86088 | 14107 ft | 364 kts | 178° |
| 2026-05-06 08:43 | 43.63987 | 1.86403 | 13679 ft | 359 kts | 178° |
| 2026-05-06 08:44 | 43.61504 | 1.86716 | 13225 ft | 355 kts | 178° |
| 2026-05-06 08:44 | 43.59062 | 1.87023 | 12798 ft | 351 kts | 178° |
| 2026-05-06 08:44 | 43.56645 | 1.87327 | 12389 ft | 346 kts | 178° |
| 2026-05-06 08:44 | 43.54259 | 1.87627 | 11982 ft | 342 kts | 178° |
| 2026-05-06 08:45 | 43.51904 | 1.87923 | 11596 ft | 338 kts | 178° |
| 2026-05-06 08:45 | 43.49568 | 1.88217 | 11207 ft | 334 kts | 178° |
| 2026-05-06 08:45 | 43.47296 | 1.88502 | 10837 ft | 331 kts | 178° |
| 2026-05-06 08:45 | 43.45014 | 1.88788 | 10463 ft | 327 kts | 178° |
| 2026-05-06 08:46 | 43.42759 | 1.89070 | 10095 ft | 324 kts | 178° |
| 2026-05-06 08:46 | 43.40545 | 1.89348 | 9988 ft | 312 kts | 178° |
| 2026-05-06 08:46 | 43.38429 | 1.89615 | 9963 ft | 299 kts | 178° |
| 2026-05-06 08:46 | 43.36401 | 1.89869 | 9946 ft | 286 kts | 178° |
| 2026-05-06 08:47 | 43.34470 | 1.90111 | 9949 ft | 272 kts | 178° |
| 2026-05-06 08:47 | 43.32622 | 1.90342 | 9944 ft | 260 kts | 178° |
| 2026-05-06 08:47 | 43.30848 | 1.90563 | 9809 ft | 254 kts | 179° |
| 2026-05-06 08:47 | 43.29040 | 1.90784 | 8940 ft | 271 kts | 179° |
| 2026-05-06 08:48 | 43.27127 | 1.91119 | 8149 ft | 283 kts | 167° |
| 2026-05-06 08:48 | 43.25426 | 1.92464 | 7552 ft | 292 kts | 137° |
| 2026-05-06 08:48 | 43.24390 | 1.94838 | 7057 ft | 295 kts | 106° |
| 2026-05-06 08:48 | 43.24075 | 1.97633 | 6681 ft | 296 kts | 96° |
| 2026-05-06 08:49 | 43.23867 | 2.00435 | 6418 ft | 294 kts | 96° |
| 2026-05-06 08:49 | 43.23668 | 2.03178 | 6329 ft | 283 kts | 95° |
| 2026-05-06 08:49 | 43.23469 | 2.05824 | 6232 ft | 274 kts | 96° |
| 2026-05-06 08:49 | 43.23270 | 2.08369 | 6156 ft | 265 kts | 96° |
| 2026-05-06 08:50 | 43.23073 | 2.10831 | 6063 ft | 253 kts | 96° |
| 2026-05-06 08:50 | 43.22881 | 2.13172 | 5958 ft | 242 kts | 96° |
| 2026-05-06 08:50 | 43.22696 | 2.15420 | 5869 ft | 233 kts | 96° |
| 2026-05-06 08:50 | 43.22519 | 2.17550 | 5793 ft | 223 kts | 96° |
| 2026-05-06 08:51 | 43.22346 | 2.19633 | 5658 ft | 217 kts | 95° |
| 2026-05-06 08:51 | 43.22547 | 2.21629 | 5418 ft | 210 kts | 59° |
| 2026-05-06 08:51 | 43.23217 | 2.23376 | 5332 ft | 208 kts | 59° |
| 2026-05-06 08:51 | 43.23871 | 2.25169 | 5226 ft | 212 kts | 59° |
| 2026-05-06 08:52 | 43.24529 | 2.26982 | 5106 ft | 213 kts | 59° |
| 2026-05-06 08:52 | 43.25190 | 2.28798 | 4967 ft | 212 kts | 58° |
| 2026-05-06 08:52 | 43.25852 | 2.30614 | 4778 ft | 215 kts | 58° |
| 2026-05-06 08:52 | 43.26458 | 2.32518 | 4500 ft | 222 kts | 77° |
| 2026-05-06 08:53 | 43.26483 | 2.34608 | 4386 ft | 216 kts | 91° |
| 2026-05-06 08:53 | 43.26428 | 2.36648 | 4206 ft | 212 kts | 90° |
| 2026-05-06 08:53 | 43.26385 | 2.38647 | 4094 ft | 209 kts | 90° |
| 2026-05-06 08:53 | 43.26343 | 2.40643 | 3965 ft | 209 kts | 90° |
| 2026-05-06 08:54 | 43.26302 | 2.42637 | 3830 ft | 209 kts | 89° |
| 2026-05-06 08:54 | 43.26261 | 2.44642 | 3699 ft | 211 kts | 90° |
| 2026-05-06 08:54 | 43.26221 | 2.46640 | 3680 ft | 213 kts | 90° |
| 2026-05-06 08:54 | 43.26180 | 2.48670 | 3610 ft | 214 kts | 90° |
| 2026-05-06 08:55 | 43.26140 | 2.50717 | 3490 ft | 212 kts | 90° |
| 2026-05-06 08:55 | 43.26099 | 2.52722 | 3476 ft | 209 kts | 90° |
| 2026-05-06 08:55 | 43.26058 | 2.54716 | 3462 ft | 210 kts | 90° |
| 2026-05-06 08:55 | 43.25952 | 2.56728 | 3441 ft | 214 kts | 107° |
| 2026-05-06 08:56 | 43.25152 | 2.58375 | 3473 ft | 207 kts | 150° |
| 2026-05-06 08:56 | 43.23842 | 2.59011 | 3479 ft | 197 kts | 184° |
| 2026-05-06 08:56 | 43.22483 | 2.58921 | 3469 ft | 197 kts | 193° |
| 2026-05-06 08:56 | 43.21137 | 2.58665 | 3448 ft | 191 kts | 204° |
| 2026-05-06 08:57 | 43.20093 | 2.57745 | 3459 ft | 172 kts | 238° |
| 2026-05-06 08:57 | 43.19614 | 2.56312 | 3470 ft | 164 kts | 265° |
| 2026-05-06 08:57 | 43.19664 | 2.54754 | 3419 ft | 165 kts | 277° |
| 2026-05-06 08:57 | 43.19783 | 2.53213 | 3508 ft | 163 kts | 277° |
| 2026-05-06 08:58 | 43.19878 | 2.51603 | 3223 ft | 175 kts | 275° |
| 2026-05-06 08:58 | 43.19935 | 2.49957 | 3021 ft | 168 kts | 272° |
| 2026-05-06 08:58 | 43.19986 | 2.48415 | 2838 ft | 159 kts | 277° |
| 2026-05-06 08:58 | 43.20131 | 2.46940 | 2542 ft | 152 kts | 279° |
| 2026-05-06 08:59 | 43.20291 | 2.45594 | 2361 ft | 139 kts | 280° |
| 2026-05-06 08:59 | 43.20440 | 2.44357 | 2254 ft | 125 kts | 279° |
| 2026-05-06 08:59 | 43.20546 | 2.43191 | 2222 ft | 126 kts | 278° |
| 2026-05-06 08:59 | 43.20657 | 2.41985 | 1992 ft | 129 kts | 278° |
| 2026-05-06 09:00 | 43.20768 | 2.40773 | 1744 ft | 127 kts | 277° |
| 2026-05-06 09:00 | 43.20885 | 2.39582 | 1504 ft | 126 kts | 276° |
| 2026-05-06 09:00 | 43.21005 | 2.38396 | 1330 ft | 128 kts | 277° |
| 2026-05-06 09:00 | 43.21070 | 2.37171 | 1130 ft | 129 kts | 276° |
| 2026-05-06 09:01 | 43.21182 | 2.35938 | 909 ft | 133 kts | 277° |
| 2026-05-06 09:01 | 43.21281 | 2.34666 | 750 ft | 135 kts | 276° |
| 2026-05-06 09:01 | 43.21387 | 2.33392 | 627 ft | 133 kts | 274° |
| 2026-05-06 09:01 | 43.21476 | 2.32156 | 483 ft | 127 kts | 276° |
| 2026-05-06 09:02 | 43.21572 | 2.31019 | 413 ft | 104 kts | 276° |
| 2026-05-06 09:02 | 43.21623 | 2.30334 | 424 ft | 46 kts | 276° |
| 2026-05-06 09:02 | 43.21656 | 2.29937 | 414 ft | 37 kts | 276° |
| 2026-05-06 09:02 | 43.21659 | 2.29821 | 423 ft | 1 kts | 238° |
| 2026-05-06 09:03 | 43.21655 | 2.29819 | 414 ft | 0 kts | 212° |
| 2026-05-06 09:03 | 43.21646 | 2.29814 | 418 ft | 4 kts | 199° |
| 2026-05-06 09:03 | 43.21603 | 2.29814 | 418 ft | 8 kts | 170° |
| 2026-05-06 09:03 | 43.21563 | 2.29845 | 416 ft | 0 kts | 116° |
| 2026-05-06 09:04 | 43.21563 | 2.29850 | 416 ft | 2 kts | 91° |
| 2026-05-06 09:04 | 43.21566 | 2.29874 | 418 ft | 4 kts | 82° |
| 2026-05-06 09:05 | 43.21566 | 2.29929 | 417 ft | 6 kts | 96° |
| 2026-05-06 09:05 | 43.21562 | 2.29980 | 423 ft | 7 kts | 97° |
| 2026-05-06 09:05 | 43.21553 | 2.30072 | 418 ft | 10 kts | 96° |
| 2026-05-06 09:05 | 43.21545 | 2.30188 | 423 ft | 12 kts | 96° |
| 2026-05-06 09:06 | 43.21534 | 2.30310 | 423 ft | 15 kts | 97° |
| 2026-05-06 09:06 | 43.21521 | 2.30461 | 416 ft | 13 kts | 96° |
| 2026-05-06 09:06 | 43.21517 | 2.30511 | 420 ft | 11 kts | 96° |
| 2026-05-06 09:06 | 43.21507 | 2.30647 | 422 ft | 14 kts | 96° |
| 2026-05-06 09:07 | 43.21498 | 2.30761 | 419 ft | 11 kts | 97° |
| 2026-05-06 09:07 | 43.21492 | 2.30823 | 418 ft | 0 kts | 97° |
| 2026-05-06 09:07 | 43.21492 | 2.30824 | 419 ft | 0 kts | 101° |
| 2026-05-06 09:07 | 43.21488 | 2.30826 | 420 ft | 1 kts | 155° |
| 2026-05-06 09:08 | 43.21480 | 2.30817 | 415 ft | 2 kts | 241° |
| 2026-05-06 09:08 | 43.21481 | 2.30782 | 419 ft | 6 kts | 268° |
| 2026-05-06 09:08 | 43.21453 | 2.30729 | 419 ft | 8 kts | 200° |
| 2026-05-06 09:08 | 43.21401 | 2.30716 | 422 ft | 8 kts | 194° |
| 2026-05-06 09:09 | 43.21387 | 2.30696 | 418 ft | 1 kts | 272° |
| 2026-05-06 09:09 | 43.21391 | 2.30692 | 419 ft | 3 kts | 316° |
| 2026-05-06 09:09 | 43.21396 | 2.30687 | 419 ft | 0 kts | 321° |